Time;durP1;ratioP1;P1;durP2;ratioP2;P2;SDS_P1;SDS_P2;PMS_P1;PMS_P2;Temp;Humidity;BMP_temperature;BMP_pressure;BME280_temperature;BME280_humidity;BME280_pressure;Samples;Min_cycle;Max_cycle;Signal;HPM_P1;HPM_P2
2023/03/09 00:00:33;;;;;;;6.90;4.75;;;;;;;;;;4992731;28;20061;-74
2023/03/09 00:02:58;;;;;;;6.15;4.32;;;;;;;;;;4971422;28;20035;-74
2023/03/09 00:05:24;;;;;;;6.65;4.20;;;;;;;;;;4988721;28;20525;-74
2023/03/09 00:07:49;;;;;;;5.53;3.85;;;;;;;;;;4993927;28;20031;-73
2023/03/09 00:10:16;;;;;;;6.72;4.38;;;;;;;;;;4993872;28;20026;-74
2023/03/09 00:12:41;;;;;;;6.25;4.20;;;;;;;;;;4993716;28;20042;-74
2023/03/09 00:15:08;;;;;;;6.18;4.20;;;;;;;;;;4993580;28;20460;-74
2023/03/09 00:17:33;;;;;;;8.32;4.43;;;;;;;;;;4993638;28;20041;-74
2023/03/09 00:20:14;;;;;;;5.85;4.35;;;;;;;;;;4993473;28;20125;-73
2023/03/09 00:22:40;;;;;;;5.57;4.18;;;;;;;;;;4993645;28;20046;-73
2023/03/09 00:25:06;;;;;;;5.97;4.00;;;;;;;;;;4983740;28;20046;-73
2023/03/09 00:27:32;;;;;;;5.00;3.88;;;;;;;;;;4997054;28;20034;-73
2023/03/09 00:29:57;;;;;;;5.07;3.90;;;;;;;;;;4997265;28;20497;-74
2023/03/09 00:32:23;;;;;;;5.85;4.35;;;;;;;;;;4997752;28;20053;-73
2023/03/09 00:34:51;;;;;;;6.13;4.15;;;;;;;;;;4997492;28;20044;-74
2023/03/09 00:37:17;;;;;;;6.07;3.97;;;;;;;;;;4983767;28;20542;-74
2023/03/09 00:39:42;;;;;;;5.28;3.60;;;;;;;;;;4995411;28;20113;-74
2023/03/09 00:42:08;;;;;;;7.00;4.28;;;;;;;;;;4996723;28;20061;-74
2023/03/09 00:44:33;;;;;;;7.18;4.30;;;;;;;;;;4999389;28;20368;-74
2023/03/09 00:46:59;;;;;;;5.82;4.38;;;;;;;;;;4995911;28;20065;-74
2023/03/09 00:49:24;;;;;;;5.72;4.05;;;;;;;;;;5011666;28;20042;-74
2023/03/09 00:51:50;;;;;;;5.60;3.63;;;;;;;;;;4996010;28;20034;-73
2023/03/09 00:54:15;;;;;;;6.30;4.18;;;;;;;;;;4996735;28;20062;-74
2023/03/09 00:56:41;;;;;;;5.82;4.03;;;;;;;;;;4997135;28;20042;-74
2023/03/09 00:59:07;;;;;;;6.05;4.28;;;;;;;;;;4997297;28;20030;-74
2023/03/09 01:01:32;;;;;;;6.93;4.22;;;;;;;;;;4995444;28;20379;-74
2023/03/09 01:03:58;;;;;;;5.30;4.15;;;;;;;;;;4987352;28;20391;-74
2023/03/09 01:06:24;;;;;;;9.70;4.03;;;;;;;;;;4996786;28;20462;-73
2023/03/09 01:08:50;;;;;;;6.32;4.20;;;;;;;;;;4995793;28;20042;-74
2023/03/09 01:11:16;;;;;;;6.57;4.32;;;;;;;;;;4972460;28;20057;-74
2023/03/09 01:13:42;;;;;;;7.53;4.30;;;;;;;;;;4992616;28;20026;-74
2023/03/09 01:16:08;;;;;;;6.47;4.32;;;;;;;;;;4997012;28;20384;-74
2023/03/09 01:18:33;;;;;;;7.82;4.18;;;;;;;;;;4996785;28;20042;-73
2023/03/09 01:20:59;;;;;;;6.10;3.83;;;;;;;;;;4996786;28;20097;-74
2023/03/09 01:23:25;;;;;;;7.80;4.32;;;;;;;;;;4995566;28;20038;-74
2023/03/09 01:25:50;;;;;;;5.55;4.00;;;;;;;;;;4996732;28;20030;-74
2023/03/09 01:28:15;;;;;;;8.38;4.43;;;;;;;;;;4996600;28;20034;-73
2023/03/09 01:30:41;;;;;;;6.15;4.15;;;;;;;;;;4989607;28;20065;-74
2023/03/09 01:33:06;;;;;;;6.15;4.32;;;;;;;;;;4996673;28;20137;-73
2023/03/09 01:35:32;;;;;;;6.07;4.15;;;;;;;;;;4987461;28;20117;-74
2023/03/09 01:37:57;;;;;;;8.05;4.10;;;;;;;;;;4994461;28;20046;-74
2023/03/09 01:40:25;;;;;;;7.88;4.45;;;;;;;;;;4996521;28;20117;-73
2023/03/09 01:42:55;;;;;;;6.18;4.25;;;;;;;;;;4996464;28;20038;-73
2023/03/09 01:45:21;;;;;;;6.72;4.60;;;;;;;;;;4984862;28;20117;-73
2023/03/09 01:47:46;;;;;;;7.00;4.55;;;;;;;;;;4995461;28;20069;-73
2023/03/09 01:50:13;;;;;;;6.57;4.18;;;;;;;;;;4980003;28;20731;-73
2023/03/09 01:52:40;;;;;;;8.60;4.55;;;;;;;;;;4988694;28;20213;-73
2023/03/09 01:55:09;;;;;;;6.82;4.38;;;;;;;;;;4995842;28;20042;-73
2023/03/09 01:57:47;;;;;;;7.22;4.38;;;;;;;;;;5011388;28;20109;-73
2023/03/09 02:00:16;;;;;;;6.32;4.22;;;;;;;;;;4985674;28;20100;-74
2023/03/09 02:02:44;;;;;;;6.43;4.50;;;;;;;;;;5011029;28;20080;-73
2023/03/09 02:05:16;;;;;;;6.63;4.30;;;;;;;;;;4996130;28;20172;-74
2023/03/09 02:07:44;;;;;;;8.32;4.90;;;;;;;;;;5011081;28;20042;-73
2023/03/09 02:10:31;;;;;;;7.75;4.68;;;;;;;;;;4987221;28;20049;-73
2023/03/09 02:13:00;;;;;;;7.03;4.57;;;;;;;;;;4994300;28;20478;-73
2023/03/09 02:15:25;;;;;;;7.07;4.50;;;;;;;;;;5006786;28;20049;-73
2023/03/09 02:17:51;;;;;;;7.35;4.78;;;;;;;;;;4995895;28;20030;-73
2023/03/09 02:20:57;;;;;;;7.47;4.63;;;;;;;;;;4990376;28;20042;-74
2023/03/09 02:23:25;;;;;;;7.45;4.43;;;;;;;;;;4993856;28;20054;-73
2023/03/09 02:25:57;;;;;;;7.43;4.45;;;;;;;;;;5010676;28;20117;-73
2023/03/09 02:28:22;;;;;;;8.40;5.25;;;;;;;;;;4983717;28;20064;-73
2023/03/09 02:30:48;;;;;;;6.35;4.35;;;;;;;;;;4995390;28;20018;-73
2023/03/09 02:33:27;;;;;;;6.93;4.22;;;;;;;;;;4989440;28;20078;-73
2023/03/09 02:35:53;;;;;;;7.05;4.72;;;;;;;;;;4985655;28;20034;-73
2023/03/09 02:38:19;;;;;;;8.18;4.68;;;;;;;;;;5010449;28;20245;-73
2023/03/09 02:40:44;;;;;;;8.80;4.90;;;;;;;;;;4995455;28;20042;-73
2023/03/09 02:43:11;;;;;;;8.82;5.03;;;;;;;;;;5010303;28;20458;-73
2023/03/09 02:45:37;;;;;;;6.82;4.60;;;;;;;;;;4995197;28;20042;-73
2023/03/09 02:48:02;;;;;;;8.48;4.70;;;;;;;;;;4987762;28;20109;-74
2023/03/09 02:50:28;;;;;;;8.65;5.10;;;;;;;;;;4990737;28;20046;-74
2023/03/09 02:52:53;;;;;;;6.88;4.05;;;;;;;;;;4985764;28;20097;-73
2023/03/09 02:55:19;;;;;;;8.65;5.28;;;;;;;;;;4982054;28;20054;-73
2023/03/09 02:57:44;;;;;;;6.47;4.40;;;;;;;;;;4988429;28;20038;-73
2023/03/09 03:00:12;;;;;;;5.97;4.00;;;;;;;;;;4991891;28;20050;-73
2023/03/09 03:02:38;;;;;;;11.95;4.70;;;;;;;;;;5006718;28;20045;-73
2023/03/09 03:05:05;;;;;;;8.23;5.18;;;;;;;;;;4984278;28;20030;-73
2023/03/09 03:07:31;;;;;;;8.77;4.60;;;;;;;;;;5008108;28;20538;-73
2023/03/09 03:09:56;;;;;;;7.78;4.78;;;;;;;;;;4989584;28;20180;-73
2023/03/09 03:12:21;;;;;;;8.25;4.78;;;;;;;;;;4994659;28;20117;-74
2023/03/09 03:14:47;;;;;;;8.55;4.50;;;;;;;;;;4992364;28;20038;-73
2023/03/09 03:17:12;;;;;;;11.85;4.47;;;;;;;;;;4994481;28;20612;-73
2023/03/09 03:19:38;;;;;;;8.70;4.95;;;;;;;;;;4984014;28;20386;-74
2023/03/09 03:22:04;;;;;;;9.43;5.18;;;;;;;;;;4994419;28;20470;-74
2023/03/09 03:24:30;;;;;;;8.60;5.10;;;;;;;;;;4990915;28;20066;-74
2023/03/09 03:26:55;;;;;;;7.82;4.60;;;;;;;;;;4994468;28;20034;-73
2023/03/09 03:29:21;;;;;;;7.10;4.43;;;;;;;;;;4994429;28;20501;-74
2023/03/09 03:31:46;;;;;;;7.57;4.68;;;;;;;;;;4994399;28;20429;-73
2023/03/09 03:34:12;;;;;;;11.27;5.82;;;;;;;;;;4994331;28;20034;-73
2023/03/09 03:36:37;;;;;;;7.82;4.28;;;;;;;;;;4994294;28;20097;-73
2023/03/09 03:39:04;;;;;;;8.00;4.43;;;;;;;;;;4994248;28;20030;-74
2023/03/09 03:41:30;;;;;;;7.50;4.63;;;;;;;;;;4984363;28;20114;-73
2023/03/09 03:43:56;;;;;;;8.50;4.93;;;;;;;;;;4994264;28;20172;-73
2023/03/09 03:46:21;;;;;;;9.90;4.50;;;;;;;;;;4992461;28;20495;-73
2023/03/09 03:48:46;;;;;;;6.13;3.83;;;;;;;;;;4979453;28;20105;-73
2023/03/09 03:51:13;;;;;;;8.88;5.22;;;;;;;;;;4987239;28;20046;-73
2023/03/09 03:53:39;;;;;;;7.35;4.78;;;;;;;;;;4993600;28;20097;-73
2023/03/09 03:56:04;;;;;;;10.00;4.93;;;;;;;;;;4989367;28;20057;-73
2023/03/09 03:58:30;;;;;;;9.57;4.90;;;;;;;;;;4978670;28;20043;-73
2023/03/09 04:00:56;;;;;;;8.50;4.45;;;;;;;;;;4983744;28;20064;-74
2023/03/09 04:03:22;;;;;;;7.85;4.75;;;;;;;;;;4987155;28;20038;-74
2023/03/09 04:05:47;;;;;;;7.50;4.72;;;;;;;;;;4990567;28;20402;-74
2023/03/09 04:08:13;;;;;;;6.93;4.47;;;;;;;;;;4990826;28;20125;-73
2023/03/09 04:10:39;;;;;;;6.63;4.57;;;;;;;;;;4990797;28;20046;-73
2023/03/09 04:13:04;;;;;;;10.32;5.55;;;;;;;;;;4984923;28;20042;-73
2023/03/09 04:15:34;;;;;;;7.65;4.95;;;;;;;;;;4990021;28;20038;-74
2023/03/09 04:18:00;;;;;;;8.60;5.13;;;;;;;;;;4992514;28;20036;-74
2023/03/09 04:20:26;;;;;;;10.10;4.80;;;;;;;;;;4987674;28;20043;-73
2023/03/09 04:22:52;;;;;;;10.50;5.95;;;;;;;;;;4986080;28;20042;-73
2023/03/09 04:25:17;;;;;;;8.48;5.10;;;;;;;;;;4993692;28;20030;-73
2023/03/09 04:27:43;;;;;;;9.65;4.82;;;;;;;;;;4986953;28;20118;-73
2023/03/09 04:30:10;;;;;;;12.48;5.75;;;;;;;;;;5008206;28;20073;-74
2023/03/09 04:32:36;;;;;;;9.65;5.13;;;;;;;;;;4984215;28;20054;-73
2023/03/09 04:35:01;;;;;;;9.80;4.95;;;;;;;;;;4993685;28;20462;-73
2023/03/09 04:37:27;;;;;;;10.55;4.47;;;;;;;;;;4993644;28;20034;-73
2023/03/09 04:39:52;;;;;;;9.35;5.35;;;;;;;;;;4993566;28;20110;-73
2023/03/09 04:42:17;;;;;;;7.35;4.78;;;;;;;;;;4993623;28;20034;-73
2023/03/09 04:44:43;;;;;;;8.07;4.75;;;;;;;;;;4993136;28;20121;-74
2023/03/09 04:47:12;;;;;;;13.95;5.70;;;;;;;;;;4992541;28;20043;-73
2023/03/09 04:49:39;;;;;;;8.18;5.25;;;;;;;;;;4986575;28;20368;-73
2023/03/09 04:52:04;;;;;;;10.63;5.40;;;;;;;;;;5008404;28;20513;-74
2023/03/09 04:54:30;;;;;;;10.48;5.78;;;;;;;;;;4993508;28;20093;-73
2023/03/09 04:56:55;;;;;;;8.93;5.10;;;;;;;;;;4982899;28;20479;-73
2023/03/09 04:59:21;;;;;;;11.50;5.55;;;;;;;;;;4993359;28;20038;-73
2023/03/09 05:01:46;;;;;;;16.33;4.85;;;;;;;;;;4993420;28;20463;-73
2023/03/09 05:04:11;;;;;;;9.07;4.65;;;;;;;;;;4993376;28;20486;-73
2023/03/09 05:06:37;;;;;;;10.15;5.53;;;;;;;;;;4991867;28;20041;-73
2023/03/09 05:09:04;;;;;;;9.23;5.03;;;;;;;;;;4993234;28;20042;-73
2023/03/09 05:11:30;;;;;;;11.90;6.45;;;;;;;;;;4993394;28;20042;-73
2023/03/09 05:13:56;;;;;;;9.75;5.55;;;;;;;;;;5011943;28;20038;-73
2023/03/09 05:16:21;;;;;;;12.20;4.40;;;;;;;;;;4995613;28;20041;-73
2023/03/09 05:18:51;;;;;;;11.20;6.00;;;;;;;;;;4996637;28;20033;-73
2023/03/09 05:21:17;;;;;;;7.38;5.05;;;;;;;;;;4987130;28;20096;-73
2023/03/09 05:23:42;;;;;;;10.73;6.75;;;;;;;;;;4996767;28;20429;-73
2023/03/09 05:26:07;;;;;;;12.40;5.88;;;;;;;;;;5011822;28;20169;-73
2023/03/09 05:28:34;;;;;;;10.93;4.50;;;;;;;;;;4994075;28;20072;-73
2023/03/09 05:31:00;;;;;;;9.73;5.38;;;;;;;;;;4996197;28;20512;-73
2023/03/09 05:33:25;;;;;;;10.73;6.38;;;;;;;;;;5011800;28;20062;-73
2023/03/09 05:35:51;;;;;;;9.65;6.32;;;;;;;;;;4987346;28;20470;-73
2023/03/09 05:38:17;;;;;;;7.45;4.95;;;;;;;;;;4996613;28;20462;-73
2023/03/09 05:40:43;;;;;;;14.10;6.10;;;;;;;;;;4996457;28;20045;-73
2023/03/09 05:43:09;;;;;;;10.75;5.53;;;;;;;;;;4995454;28;20038;-73
2023/03/09 05:45:34;;;;;;;10.30;4.72;;;;;;;;;;4997710;28;20093;-73
2023/03/09 05:47:59;;;;;;;9.57;5.32;;;;;;;;;;4994441;28;20092;-74
2023/03/09 05:50:25;;;;;;;7.80;4.93;;;;;;;;;;4996324;28;20050;-73
2023/03/09 05:52:50;;;;;;;5.50;3.40;;;;;;;;;;4996284;28;20042;-73
2023/03/09 05:55:16;;;;;;;10.15;5.43;;;;;;;;;;4995621;28;20043;-73
2023/03/09 05:57:41;;;;;;;9.45;4.95;;;;;;;;;;4994919;28;20050;-73
2023/03/09 06:00:09;;;;;;;2.75;2.10;;;;;;;;;;4981088;28;20113;-74
2023/03/09 06:02:35;;;;;;;7.97;4.78;;;;;;;;;;5005889;28;20069;-73
2023/03/09 06:05:00;;;;;;;8.40;5.25;;;;;;;;;;4996046;28;20081;-73
2023/03/09 06:07:28;;;;;;;9.57;5.95;;;;;;;;;;4995894;28;20049;-73
2023/03/09 06:09:53;;;;;;;10.23;6.20;;;;;;;;;;4995563;28;20505;-73
2023/03/09 06:12:19;;;;;;;10.73;3.58;;;;;;;;;;4995872;28;20038;-73
2023/03/09 06:14:51;;;;;;;8.50;4.82;;;;;;;;;;5010995;28;20144;-73
2023/03/09 06:17:16;;;;;;;7.50;4.55;;;;;;;;;;4986127;28;20046;-73
2023/03/09 06:19:42;;;;;;;10.30;5.25;;;;;;;;;;4994593;28;20065;-73
2023/03/09 06:22:07;;;;;;;9.73;5.32;;;;;;;;;;5010511;28;20030;-73
2023/03/09 06:24:33;;;;;;;13.38;5.05;;;;;;;;;;4994661;28;20050;-73
2023/03/09 06:26:59;;;;;;;8.80;5.05;;;;;;;;;;4995407;28;20032;-73
2023/03/09 06:29:27;;;;;;;13.45;6.68;;;;;;;;;;4995246;28;20026;-74
2023/03/09 06:31:52;;;;;;;14.45;6.97;;;;;;;;;;4986775;28;20062;-73
2023/03/09 06:34:18;;;;;;;7.30;3.85;;;;;;;;;;4995573;28;20532;-73
2023/03/09 06:36:43;;;;;;;9.15;4.55;;;;;;;;;;4994942;28;20544;-73
2023/03/09 06:39:09;;;;;;;14.45;5.05;;;;;;;;;;4995511;28;20037;-73
2023/03/09 06:41:36;;;;;;;7.95;4.53;;;;;;;;;;4995531;28;20097;-73
2023/03/09 06:44:01;;;;;;;10.13;5.28;;;;;;;;;;4982332;28;20026;-73
2023/03/09 06:46:27;;;;;;;10.90;5.95;;;;;;;;;;4995039;28;20056;-73
2023/03/09 06:48:52;;;;;;;9.82;5.28;;;;;;;;;;4993574;28;20101;-73
2023/03/09 06:51:18;;;;;;;10.82;5.65;;;;;;;;;;4992117;28;20046;-73
2023/03/09 06:53:44;;;;;;;6.97;3.75;;;;;;;;;;4990180;28;20057;-73
2023/03/09 06:56:10;;;;;;;8.68;4.63;;;;;;;;;;5007628;28;20046;-74
2023/03/09 06:58:36;;;;;;;6.47;3.75;;;;;;;;;;4990262;28;20030;-73
2023/03/09 07:01:06;;;;;;;8.40;4.45;;;;;;;;;;4989139;28;20038;-73
2023/03/09 07:03:32;;;;;;;8.23;4.32;;;;;;;;;;4995002;28;20124;-73
2023/03/09 07:05:57;;;;;;;8.13;4.88;;;;;;;;;;4994815;28;20484;-73
2023/03/09 07:08:22;;;;;;;11.05;4.22;;;;;;;;;;4994868;28;20165;-73
2023/03/09 07:10:49;;;;;;;8.40;4.82;;;;;;;;;;4994660;28;20077;-73
2023/03/09 07:13:14;;;;;;;9.45;4.43;;;;;;;;;;4994685;28;20030;-73
2023/03/09 07:15:40;;;;;;;10.32;4.45;;;;;;;;;;4994629;28;20524;-73
2023/03/09 07:18:05;;;;;;;9.13;4.30;;;;;;;;;;4994585;28;20402;-73
2023/03/09 07:20:31;;;;;;;9.00;4.40;;;;;;;;;;4994685;28;20034;-73
2023/03/09 07:22:56;;;;;;;9.32;4.65;;;;;;;;;;4992535;28;20371;-74
2023/03/09 07:25:22;;;;;;;9.13;4.50;;;;;;;;;;4994737;28;20042;-73
2023/03/09 07:27:48;;;;;;;7.82;4.10;;;;;;;;;;4979057;28;20037;-73
2023/03/09 07:30:14;;;;;;;9.07;3.97;;;;;;;;;;4975998;28;20090;-73
2023/03/09 07:32:40;;;;;;;6.28;3.60;;;;;;;;;;4991308;28;20046;-74
2023/03/09 07:35:06;;;;;;;5.65;3.17;;;;;;;;;;4982855;28;20143;-74
2023/03/09 07:37:31;;;;;;;7.30;4.22;;;;;;;;;;5005775;28;20438;-74
2023/03/09 07:39:57;;;;;;;7.70;4.28;;;;;;;;;;4983737;28;20043;-73
2023/03/09 07:42:22;;;;;;;6.90;3.42;;;;;;;;;;4983378;28;20159;-73
2023/03/09 07:44:48;;;;;;;8.38;3.90;;;;;;;;;;4995972;28;20049;-73
2023/03/09 07:47:13;;;;;;;7.57;3.80;;;;;;;;;;4981459;28;20089;-73
2023/03/09 07:49:39;;;;;;;10.23;4.28;;;;;;;;;;4982460;28;20101;-74
2023/03/09 07:52:04;;;;;;;6.55;3.67;;;;;;;;;;4980438;28;20053;-74
2023/03/09 07:54:30;;;;;;;5.93;3.35;;;;;;;;;;4987641;28;20181;-74
2023/03/09 07:56:55;;;;;;;7.88;3.50;;;;;;;;;;4986075;28;20378;-74
2023/03/09 07:59:21;;;;;;;6.18;3.13;;;;;;;;;;4994127;28;20034;-73
2023/03/09 08:01:46;;;;;;;6.88;3.53;;;;;;;;;;4993861;28;20042;-74
2023/03/09 08:04:13;;;;;;;7.78;3.58;;;;;;;;;;4992865;28;20085;-73
2023/03/09 08:06:39;;;;;;;5.97;2.95;;;;;;;;;;4993912;28;20061;-74
2023/03/09 08:09:06;;;;;;;8.15;3.35;;;;;;;;;;5008856;28;20401;-73
2023/03/09 08:11:32;;;;;;;6.00;3.38;;;;;;;;;;4986755;28;20027;-74
2023/03/09 08:13:58;;;;;;;7.88;3.42;;;;;;;;;;4977466;28;20088;-73
2023/03/09 08:16:24;;;;;;;5.25;2.85;;;;;;;;;;4993923;28;20042;-74
2023/03/09 08:18:49;;;;;;;7.43;3.63;;;;;;;;;;5007098;28;20359;-73
2023/03/09 08:21:15;;;;;;;6.28;2.92;;;;;;;;;;4993048;28;20070;-74
2023/03/09 08:23:41;;;;;;;2.25;1.50;;;;;;;;;;4993757;28;20042;-74
2023/03/09 08:26:13;;;;;;;6.40;2.75;;;;;;;;;;4993795;28;20053;-74
2023/03/09 08:28:40;;;;;;;6.30;2.80;;;;;;;;;;4993809;28;20121;-73
2023/03/09 08:31:05;;;;;;;7.00;3.25;;;;;;;;;;5008928;28;20038;-74
2023/03/09 08:33:31;;;;;;;6.55;3.55;;;;;;;;;;4989541;28;20030;-74
2023/03/09 08:35:57;;;;;;;4.45;2.13;;;;;;;;;;4999682;28;20479;-74
2023/03/09 08:38:22;;;;;;;5.65;2.88;;;;;;;;;;4979726;28;20074;-74
2023/03/09 08:40:48;;;;;;;4.85;2.47;;;;;;;;;;4991888;28;20041;-74
2023/03/09 08:43:13;;;;;;;5.22;2.33;;;;;;;;;;4993646;28;20116;-74
2023/03/09 08:45:39;;;;;;;4.20;2.25;;;;;;;;;;4993245;28;20035;-74
2023/03/09 08:48:05;;;;;;;7.15;2.85;;;;;;;;;;4990522;28;20056;-74
2023/03/09 08:50:30;;;;;;;5.13;2.50;;;;;;;;;;4985105;28;20115;-73
2023/03/09 08:52:56;;;;;;;4.45;2.40;;;;;;;;;;4991511;28;20518;-73
2023/03/09 08:55:21;;;;;;;4.30;2.38;;;;;;;;;;5002531;28;20114;-73
2023/03/09 08:57:47;;;;;;;4.70;2.20;;;;;;;;;;4979921;28;20038;-73
2023/03/09 09:00:13;;;;;;;4.88;2.47;;;;;;;;;;4990409;28;20065;-73
2023/03/09 09:02:39;;;;;;;3.40;2.05;;;;;;;;;;4990827;28;20027;-73
2023/03/09 09:05:05;;;;;;;3.03;1.98;;;;;;;;;;4989911;28;20540;-73
2023/03/09 09:07:31;;;;;;;5.70;2.80;;;;;;;;;;4979950;28;20046;-74
2023/03/09 09:09:58;;;;;;;5.95;3.22;;;;;;;;;;4997077;28;20081;-74
2023/03/09 09:12:25;;;;;;;6.35;2.80;;;;;;;;;;4989981;28;20093;-73
2023/03/09 09:14:51;;;;;;;4.65;2.40;;;;;;;;;;4989065;28;20085;-74
2023/03/09 09:17:16;;;;;;;5.57;2.80;;;;;;;;;;4989366;28;20023;-74
2023/03/09 09:19:42;;;;;;;4.00;2.15;;;;;;;;;;4991243;28;20046;-73
2023/03/09 09:22:08;;;;;;;5.07;2.78;;;;;;;;;;4988874;28;20117;-73
2023/03/09 09:24:36;;;;;;;4.32;2.47;;;;;;;;;;4989977;28;20030;-74
2023/03/09 09:27:05;;;;;;;5.18;2.88;;;;;;;;;;4995681;28;20172;-74
2023/03/09 09:29:34;;;;;;;5.43;2.72;;;;;;;;;;4996833;28;20050;-73
2023/03/09 09:32:00;;;;;;;4.43;2.40;;;;;;;;;;4995165;28;20386;-74
2023/03/09 09:34:30;;;;;;;5.97;3.13;;;;;;;;;;4996598;28;20042;-74
2023/03/09 09:36:56;;;;;;;4.38;2.92;;;;;;;;;;4996550;28;20038;-74
2023/03/09 09:39:22;;;;;;;5.53;2.60;;;;;;;;;;4998041;28;20030;-74
2023/03/09 09:41:58;;;;;;;5.65;2.53;;;;;;;;;;4996512;28;20656;-73
2023/03/09 09:44:45;;;;;;;4.85;2.70;;;;;;;;;;4990074;28;20049;-74
2023/03/09 09:47:19;;;;;;;7.47;2.42;;;;;;;;;;4995253;28;20048;-74
2023/03/09 09:49:46;;;;;;;;;;;;;;;;;;5011983;28;20429;-73
2023/03/09 09:52:24;;;;;;;3.70;2.30;;;;;;;;;;4992934;28;19918;-74
2023/03/09 09:54:57;;;;;;;4.68;2.40;;;;;;;;;;4984148;28;20506;-74
2023/03/09 09:57:30;;;;;;;4.38;2.35;;;;;;;;;;4994975;28;20030;-74
2023/03/09 10:00:11;;;;;;;4.40;2.65;;;;;;;;;;4994854;28;20474;-74
2023/03/09 10:02:42;;;;;;;4.07;2.35;;;;;;;;;;4996035;28;20042;-73
2023/03/09 10:05:13;;;;;;;5.47;2.85;;;;;;;;;;4995978;28;20073;-74
2023/03/09 10:07:38;;;;;;;4.57;2.40;;;;;;;;;;4996162;28;20085;-74
2023/03/09 10:10:06;;;;;;;5.10;2.55;;;;;;;;;;4996019;28;20041;-73
2023/03/09 10:12:32;;;;;;;5.10;2.78;;;;;;;;;;5010814;28;20034;-74
2023/03/09 10:15:04;;;;;;;4.95;2.45;;;;;;;;;;5011082;28;20034;-74
2023/03/09 10:17:48;;;;;;;4.70;2.70;;;;;;;;;;4994583;28;20073;-74
2023/03/09 10:20:14;;;;;;;;;;;;;;;;;;5011338;28;20130;-73
2023/03/09 10:22:41;;;;;;;6.28;3.10;;;;;;;;;;4994457;28;19926;-74
2023/03/09 10:25:11;;;;;;;6.30;3.38;;;;;;;;;;4985338;28;20031;-73
2023/03/09 10:27:49;;;;;;;6.90;3.53;;;;;;;;;;4993808;28;20117;-74
2023/03/09 10:30:30;;;;;;;6.13;2.70;;;;;;;;;;5010450;28;20046;-74
2023/03/09 10:33:02;;;;;;;4.47;2.80;;;;;;;;;;4994956;28;20034;-73
2023/03/09 10:35:45;;;;;;;7.63;3.03;;;;;;;;;;4988226;28;20046;-73
2023/03/09 10:38:19;;;;;;;3.88;2.30;;;;;;;;;;4994256;28;20134;-73
2023/03/09 10:40:50;;;;;;;4.00;2.17;;;;;;;;;;5010500;28;20066;-74
2023/03/09 10:43:31;;;;;;;6.10;2.42;;;;;;;;;;5010530;28;20038;-74
2023/03/09 10:46:15;;;;;;;4.90;2.17;;;;;;;;;;4994319;28;20054;-73
2023/03/09 10:48:42;;;;;;;5.47;2.15;;;;;;;;;;4995127;28;20494;-73
2023/03/09 10:51:30;;;;;;;5.18;2.63;;;;;;;;;;4991225;28;20113;-73
2023/03/09 10:53:57;;;;;;;4.68;2.55;;;;;;;;;;4987570;28;20050;-74
2023/03/09 10:56:23;;;;;;;5.80;2.72;;;;;;;;;;4995073;28;20038;-73
2023/03/09 10:59:03;;;;;;;4.75;2.70;;;;;;;;;;4982332;28;20037;-74
2023/03/09 11:01:29;;;;;;;5.90;2.30;;;;;;;;;;4984913;28;20046;-73
2023/03/09 11:03:54;;;;;;;5.63;2.35;;;;;;;;;;4992812;28;20033;-73
2023/03/09 11:06:29;;;;;;;6.78;2.15;;;;;;;;;;4994028;28;20105;-73
2023/03/09 11:09:19;;;;;;;3.72;2.22;;;;;;;;;;4982735;28;20038;-73
2023/03/09 11:11:48;;;;;;;4.68;2.45;;;;;;;;;;4993413;28;20022;-73
2023/03/09 11:14:28;;;;;;;4.43;2.33;;;;;;;;;;4993215;28;20039;-73
2023/03/09 11:16:56;;;;;;;4.05;2.10;;;;;;;;;;4986223;28;20065;-73
2023/03/09 11:19:22;;;;;;;3.35;2.00;;;;;;;;;;4994610;28;20121;-74
2023/03/09 11:21:59;;;;;;;5.15;2.20;;;;;;;;;;4993353;28;20114;-74
2023/03/09 11:24:40;;;;;;;7.13;2.53;;;;;;;;;;5009713;28;20049;-73
2023/03/09 11:27:11;;;;;;;4.35;2.45;;;;;;;;;;4999899;28;20050;-74
2023/03/09 11:29:51;;;;;;;10.55;2.25;;;;;;;;;;4994493;28;20120;-74
2023/03/09 11:32:16;;;;;;;5.75;2.50;;;;;;;;;;4993376;28;20046;-73
2023/03/09 11:34:43;;;;;;;5.75;2.42;;;;;;;;;;5001694;28;20039;-74
2023/03/09 11:37:27;;;;;;;6.18;3.03;;;;;;;;;;5006984;28;20045;-73
2023/03/09 11:40:10;;;;;;;6.88;2.75;;;;;;;;;;4993200;28;20181;-74
2023/03/09 11:42:42;;;;;;;5.80;3.03;;;;;;;;;;4984757;28;20046;-74
2023/03/09 11:45:15;;;;;;;5.82;2.67;;;;;;;;;;4966489;28;20399;-74
2023/03/09 11:47:43;;;;;;;5.82;3.33;;;;;;;;;;4992547;28;20038;-74
2023/03/09 11:50:38;;;;;;;5.20;2.85;;;;;;;;;;4983678;28;20042;-74
2023/03/09 11:53:26;;;;;;;11.95;3.42;;;;;;;;;;4991741;28;20104;-74
2023/03/09 11:55:59;;;;;;;5.40;3.03;;;;;;;;;;5006945;28;20041;-73
2023/03/09 11:58:35;;;;;;;6.32;3.08;;;;;;;;;;4994178;28;20042;-73
2023/03/09 12:01:18;;;;;;;4.88;2.75;;;;;;;;;;4993824;28;20073;-74
2023/03/09 12:03:55;;;;;;;5.95;2.97;;;;;;;;;;4985177;28;20030;-74
2023/03/09 12:06:27;;;;;;;5.68;3.25;;;;;;;;;;4985555;28;20050;-73
2023/03/09 12:08:55;;;;;;;5.72;2.80;;;;;;;;;;4991213;28;20378;-74
2023/03/09 12:11:29;;;;;;;5.10;2.83;;;;;;;;;;4993894;28;20042;-73
2023/03/09 12:13:56;;;;;;;;;;;;;;;;;;4984999;28;20027;-74
2023/03/09 12:16:49;;;;;;;6.22;2.88;;;;;;;;;;5014366;28;20020;-74
2023/03/09 12:19:20;;;;;;;4.53;2.97;;;;;;;;;;4985928;28;20095;-74
2023/03/09 12:22:15;;;;;;;7.72;3.38;;;;;;;;;;4978447;28;20518;-73
2023/03/09 12:24:43;;;;;;;6.15;2.70;;;;;;;;;;4988894;28;20050;-74
2023/03/09 12:27:20;;;;;;;5.82;3.03;;;;;;;;;;5015351;28;20038;-73
2023/03/09 12:30:06;;;;;;;4.68;2.67;;;;;;;;;;5000160;28;20170;-73
2023/03/09 12:32:39;;;;;;;9.93;2.97;;;;;;;;;;5000262;28;20133;-74
2023/03/09 12:35:13;;;;;;;5.95;2.80;;;;;;;;;;4999827;28;20474;-74
2023/03/09 12:37:40;;;;;;;12.55;3.05;;;;;;;;;;5015444;28;20042;-74
2023/03/09 12:40:25;;;;;;;5.47;2.80;;;;;;;;;;5000004;28;20045;-73
2023/03/09 12:42:53;;;;;;;5.43;3.05;;;;;;;;;;5000028;28;20030;-74
2023/03/09 12:45:18;;;;;;;8.00;3.70;;;;;;;;;;4998878;28;20042;-75
2023/03/09 12:48:08;;;;;;;5.65;2.60;;;;;;;;;;4993432;28;20458;-74
2023/03/09 12:50:38;;;;;;;6.35;2.95;;;;;;;;;;4993705;28;20154;-74
2023/03/09 12:53:25;;;;;;;10.32;3.35;;;;;;;;;;4977477;28;20046;-74
2023/03/09 12:55:53;;;;;;;10.55;3.50;;;;;;;;;;4987279;28;20054;-73
2023/03/09 12:58:21;;;;;;;5.18;2.78;;;;;;;;;;4998988;28;20055;-74
2023/03/09 13:00:59;;;;;;;7.78;3.40;;;;;;;;;;4995542;28;20390;-73
2023/03/09 13:03:55;;;;;;;8.73;4.05;;;;;;;;;;4981318;28;20399;-73
2023/03/09 13:06:22;;;;;;;13.52;3.33;;;;;;;;;;4987012;28;20065;-73
2023/03/09 13:09:14;;;;;;;5.15;2.97;;;;;;;;;;4999211;28;20443;-73
2023/03/09 13:11:49;;;;;;;4.70;2.88;;;;;;;;;;4979227;28;20054;-73
2023/03/09 13:14:37;;;;;;;6.18;2.92;;;;;;;;;;4992560;28;20043;-73
2023/03/09 13:17:34;;;;;;;10.05;3.42;;;;;;;;;;4997658;28;20497;-73
2023/03/09 13:20:16;;;;;;;9.23;3.30;;;;;;;;;;4999394;28;20031;-73
2023/03/09 13:22:42;;;;;;;9.13;3.13;;;;;;;;;;4989955;28;20038;-73
2023/03/09 13:25:27;;;;;;;6.25;3.28;;;;;;;;;;4996197;28;20379;-73
2023/03/09 13:28:02;;;;;;;5.43;2.72;;;;;;;;;;4981524;28;20479;-73
2023/03/09 13:30:27;;;;;;;4.90;2.83;;;;;;;;;;4987027;28;20096;-74
2023/03/09 13:32:53;;;;;;;7.53;3.75;;;;;;;;;;4995253;28;20042;-73
2023/03/09 13:35:24;;;;;;;8.18;3.13;;;;;;;;;;4988734;28;20023;-73
2023/03/09 13:37:53;;;;;;;10.30;3.47;;;;;;;;;;4981701;28;20479;-74
2023/03/09 13:40:28;;;;;;;8.48;4.13;;;;;;;;;;4999619;28;20034;-73
2023/03/09 13:42:56;;;;;;;10.93;3.63;;;;;;;;;;4994870;28;20383;-73
2023/03/09 13:45:23;;;;;;;5.93;3.45;;;;;;;;;;4985249;28;20046;-74
2023/03/09 13:47:57;;;;;;;8.68;4.20;;;;;;;;;;4992602;28;20022;-73
2023/03/09 13:50:25;;;;;;;7.72;4.00;;;;;;;;;;4983304;28;20094;-73
2023/03/09 13:53:21;;;;;;;9.20;3.92;;;;;;;;;;4994345;28;20050;-73
2023/03/09 13:55:57;;;;;;;6.75;3.70;;;;;;;;;;4982813;28;20506;-73
2023/03/09 13:58:27;;;;;;;8.45;4.22;;;;;;;;;;4984994;28;20034;-74
2023/03/09 14:01:01;;;;;;;9.85;3.67;;;;;;;;;;4988610;28;20038;-74
2023/03/09 14:03:29;;;;;;;11.57;4.00;;;;;;;;;;5011250;28;20034;-74
2023/03/09 14:06:03;;;;;;;8.77;4.47;;;;;;;;;;4996103;28;20125;-74
2023/03/09 14:08:33;;;;;;;8.20;4.18;;;;;;;;;;5011009;28;20109;-74
2023/03/09 14:11:04;;;;;;;8.20;4.53;;;;;;;;;;4994686;28;20030;-73
2023/03/09 14:13:29;;;;;;;13.88;4.80;;;;;;;;;;4984622;28;20110;-73
2023/03/09 14:15:55;;;;;;;9.27;3.78;;;;;;;;;;4995865;28;20129;-73
2023/03/09 14:18:41;;;;;;;10.55;3.90;;;;;;;;;;4991393;28;20130;-74
2023/03/09 14:21:22;;;;;;;10.05;4.55;;;;;;;;;;4987392;28;20078;-73
2023/03/09 14:23:48;;;;;;;7.90;4.05;;;;;;;;;;4994592;28;20031;-74
2023/03/09 14:26:22;;;;;;;6.90;3.70;;;;;;;;;;4983329;28;20058;-74
2023/03/09 14:28:59;;;;;;;12.93;4.63;;;;;;;;;;5010754;28;20052;-74
2023/03/09 14:31:24;;;;;;;11.15;5.20;;;;;;;;;;4995638;28;20042;-74
2023/03/09 14:34:16;;;;;;;9.30;4.30;;;;;;;;;;4995053;28;20092;-73
2023/03/09 14:36:48;;;;;;;10.30;4.65;;;;;;;;;;4992469;28;20056;-74
2023/03/09 14:39:34;;;;;;;10.05;4.70;;;;;;;;;;4990497;28;20046;-73
2023/03/09 14:42:09;;;;;;;14.90;5.25;;;;;;;;;;4994405;28;20047;-74
2023/03/09 14:44:36;;;;;;;12.45;5.82;;;;;;;;;;4984438;28;20043;-73
2023/03/09 14:47:02;;;;;;;10.52;5.22;;;;;;;;;;4993265;28;20084;-74
2023/03/09 14:49:27;;;;;;;12.15;5.47;;;;;;;;;;4994981;28;20517;-74
2023/03/09 14:51:52;;;;;;;9.50;4.35;;;;;;;;;;4995213;28;20042;-74